Aviation Digital Data Service (ADDS)

Output produced by METARs form (1220 UTC 24 May 2022)
found at http://www.aviationweather.gov/metar/data/
 
VTUU 241200Z 09003KT 040V140 8000 -TSRA FEW018CB SCT025 BKN100 26/26 Q1008 NOSIG
VTUU 241100Z 11005KT 080V140 9999 FEW030 SCT090 30/25 Q1007 NOSIG
VTUU 241000Z 14003KT 100V190 9999 FEW030 SCT090 30/26 Q1006 NOSIG
VTUU 240900Z 13005KT 060V190 9999 SCT030 32/26 Q1005 NOSIG
VTUU 240800Z 24008KT 190V290 9999 FEW030 SCT090 34/25 Q1006 NOSIG
VTUU 240700Z VRB03KT 9999 SCT030 BKN090 33/25 Q1007 NOSIG
VTUU 240600Z 20006KT 150V260 9999 SCT030 33/26 Q1007 NOSIG
VTUU 240500Z 20006KT 120V270 9999 SCT030 32/25 Q1008 NOSIG
VTUU 240400Z 19005KT 130V260 9999 SCT025 31/25 Q1009 NOSIG
VTUU 240300Z 21006KT 170V240 9999 SCT020 30/25 Q1009 NOSIG
VTUU 240200Z VRB04KT 9999 FEW015 29/25 Q1008 NOSIG
VTUU 240100Z VRB04KT 9999 FEW020 27/25 Q1008 NOSIG
VTUU 240000Z 15003KT 050V220 CAVOK 26/25 Q1008 NOSIG
VTUU 232300Z 15003KT 070V210 CAVOK 26/25 Q1007 NOSIG
VTUU 232200Z 19005KT 150V250 CAVOK 26/25 Q1006 NOSIG
VTUU 232100Z 19006KT 150V220 CAVOK 27/25 Q1006 NOSIG
VTUU 232000Z VRB04KT CAVOK 27/25 Q1006 NOSIG
VTUU 231900Z VRB03KT CAVOK 27/26 Q1005 NOSIG
VTUU 231800Z 13003KT 030V190 CAVOK 27/26 Q1006 NOSIG
VTUU 231700Z 10003KT 060V130 CAVOK 27/26 Q1006 NOSIG
VTUU 231600Z 08004KT 060V120 CAVOK 27/26 Q1006 NOSIG
VTUU 231500Z 08003KT CAVOK 27/26 Q1006 NOSIG
VTUU 231400Z 12004KT 9999 FEW030 28/26 Q1005 NOSIG
VTUU 231300Z 12003KT 9999 FEW030 28/26 Q1005 NOSIG
VTUU 231200Z VRB02KT 9999 FEW030 29/25 Q1004 NOSIG
TAF VTUU 241100Z 2412/2512 23005KT 9999 SCT030 
     TEMPO 2413/2416 21015KT 4000 TSRA FEW018CB BKN025